sensor_id;sensor_type;location;lat;lon;timestamp;P1;durP1;ratioP1;P2;durP2;ratioP2
7334;SDS011;3708;42.632;23.378;2023-06-22T00:02:28;8.15;;;7.22;;
7334;SDS011;3708;42.632;23.378;2023-06-22T00:04:55;8.80;;;6.88;;
7334;SDS011;3708;42.632;23.378;2023-06-22T00:07:22;9.05;;;6.13;;
7334;SDS011;3708;42.632;23.378;2023-06-22T00:09:49;7.43;;;6.55;;
7334;SDS011;3708;42.632;23.378;2023-06-22T00:12:15;9.77;;;7.28;;
7334;SDS011;3708;42.632;23.378;2023-06-22T00:14:42;9.35;;;7.28;;
7334;SDS011;3708;42.632;23.378;2023-06-22T00:17:09;9.00;;;7.05;;
7334;SDS011;3708;42.632;23.378;2023-06-22T00:19:37;9.93;;;7.00;;
7334;SDS011;3708;42.632;23.378;2023-06-22T00:22:05;8.83;;;7.53;;
7334;SDS011;3708;42.632;23.378;2023-06-22T00:24:32;9.87;;;7.47;;
7334;SDS011;3708;42.632;23.378;2023-06-22T00:26:59;8.07;;;7.03;;
7334;SDS011;3708;42.632;23.378;2023-06-22T00:29:26;8.05;;;6.80;;
7334;SDS011;3708;42.632;23.378;2023-06-22T00:31:52;8.57;;;7.28;;
7334;SDS011;3708;42.632;23.378;2023-06-22T00:34:19;8.43;;;7.03;;
7334;SDS011;3708;42.632;23.378;2023-06-22T00:36:47;10.43;;;7.40;;
7334;SDS011;3708;42.632;23.378;2023-06-22T00:39:17;9.23;;;7.07;;
7334;SDS011;3708;42.632;23.378;2023-06-22T00:41:43;9.70;;;7.30;;
7334;SDS011;3708;42.632;23.378;2023-06-22T00:44:10;9.02;;;6.88;;
7334;SDS011;3708;42.632;23.378;2023-06-22T00:46:37;8.07;;;6.93;;
7334;SDS011;3708;42.632;23.378;2023-06-22T00:49:04;9.70;;;6.85;;
7334;SDS011;3708;42.632;23.378;2023-06-22T00:51:31;8.20;;;6.53;;
7334;SDS011;3708;42.632;23.378;2023-06-22T00:54:00;9.50;;;7.10;;
7334;SDS011;3708;42.632;23.378;2023-06-22T00:56:27;10.03;;;6.83;;
7334;SDS011;3708;42.632;23.378;2023-06-22T00:58:55;7.83;;;7.00;;
7334;SDS011;3708;42.632;23.378;2023-06-22T01:01:23;10.53;;;6.83;;
7334;SDS011;3708;42.632;23.378;2023-06-22T01:03:50;10.90;;;7.53;;
7334;SDS011;3708;42.632;23.378;2023-06-22T01:06:19;8.77;;;6.87;;
7334;SDS011;3708;42.632;23.378;2023-06-22T01:08:53;7.83;;;7.03;;
7334;SDS011;3708;42.632;23.378;2023-06-22T01:11:30;8.77;;;7.87;;
7334;SDS011;3708;42.632;23.378;2023-06-22T01:14:03;8.70;;;7.80;;
7334;SDS011;3708;42.632;23.378;2023-06-22T01:16:35;8.43;;;6.57;;
7334;SDS011;3708;42.632;23.378;2023-06-22T01:19:09;9.73;;;7.97;;
7334;SDS011;3708;42.632;23.378;2023-06-22T01:21:51;9.10;;;7.20;;
7334;SDS011;3708;42.632;23.378;2023-06-22T01:24:22;8.80;;;7.90;;
7334;SDS011;3708;42.632;23.378;2023-06-22T01:26:57;8.27;;;7.43;;
7334;SDS011;3708;42.632;23.378;2023-06-22T01:29:32;9.90;;;8.17;;
7334;SDS011;3708;42.632;23.378;2023-06-22T01:32:01;8.83;;;7.87;;
7334;SDS011;3708;42.632;23.378;2023-06-22T01:34:30;9.93;;;7.63;;
7334;SDS011;3708;42.632;23.378;2023-06-22T01:36:58;11.20;;;8.43;;
7334;SDS011;3708;42.632;23.378;2023-06-22T01:39:26;8.80;;;7.73;;
7334;SDS011;3708;42.632;23.378;2023-06-22T01:41:53;9.30;;;8.30;;
7334;SDS011;3708;42.632;23.378;2023-06-22T01:44:20;8.23;;;7.43;;
7334;SDS011;3708;42.632;23.378;2023-06-22T01:46:49;8.90;;;8.00;;
7334;SDS011;3708;42.632;23.378;2023-06-22T01:49:17;9.70;;;8.43;;
7334;SDS011;3708;42.632;23.378;2023-06-22T01:51:44;9.73;;;8.73;;
7334;SDS011;3708;42.632;23.378;2023-06-22T01:54:11;10.10;;;8.43;;
7334;SDS011;3708;42.632;23.378;2023-06-22T01:56:38;10.23;;;8.70;;
7334;SDS011;3708;42.632;23.378;2023-06-22T01:59:07;13.57;;;8.83;;
7334;SDS011;3708;42.632;23.378;2023-06-22T02:01:40;16.73;;;8.40;;
7334;SDS011;3708;42.632;23.378;2023-06-22T02:04:13;12.37;;;8.50;;
7334;SDS011;3708;42.632;23.378;2023-06-22T02:06:46;12.27;;;8.20;;
7334;SDS011;3708;42.632;23.378;2023-06-22T02:09:17;9.27;;;8.13;;
7334;SDS011;3708;42.632;23.378;2023-06-22T02:11:48;8.47;;;7.67;;
7334;SDS011;3708;42.632;23.378;2023-06-22T02:14:19;8.50;;;7.27;;
7334;SDS011;3708;42.632;23.378;2023-06-22T02:16:47;9.00;;;7.60;;
7334;SDS011;3708;42.632;23.378;2023-06-22T02:19:17;9.10;;;8.20;;
7334;SDS011;3708;42.632;23.378;2023-06-22T02:21:48;8.53;;;7.73;;
7334;SDS011;3708;42.632;23.378;2023-06-22T02:24:15;9.13;;;7.40;;
7334;SDS011;3708;42.632;23.378;2023-06-22T02:26:42;8.70;;;7.90;;
7334;SDS011;3708;42.632;23.378;2023-06-22T02:29:10;7.27;;;6.47;;
7334;SDS011;3708;42.632;23.378;2023-06-22T02:31:37;8.67;;;7.50;;
7334;SDS011;3708;42.632;23.378;2023-06-22T02:34:04;8.47;;;7.67;;
7334;SDS011;3708;42.632;23.378;2023-06-22T02:36:32;10.67;;;6.93;;
7334;SDS011;3708;42.632;23.378;2023-06-22T02:38:59;14.33;;;7.33;;
7334;SDS011;3708;42.632;23.378;2023-06-22T02:41:28;7.90;;;7.03;;
7334;SDS011;3708;42.632;23.378;2023-06-22T02:43:55;10.93;;;7.60;;
7334;SDS011;3708;42.632;23.378;2023-06-22T02:46:22;13.13;;;7.80;;
7334;SDS011;3708;42.632;23.378;2023-06-22T02:48:49;10.63;;;7.30;;
7334;SDS011;3708;42.632;23.378;2023-06-22T02:51:16;8.17;;;7.37;;
7334;SDS011;3708;42.632;23.378;2023-06-22T02:53:44;9.13;;;8.20;;
7334;SDS011;3708;42.632;23.378;2023-06-22T02:56:11;9.87;;;8.40;;
7334;SDS011;3708;42.632;23.378;2023-06-22T02:58:38;9.10;;;8.10;;
7334;SDS011;3708;42.632;23.378;2023-06-22T03:01:05;8.67;;;7.13;;
7334;SDS011;3708;42.632;23.378;2023-06-22T03:03:31;8.40;;;7.20;;
7334;SDS011;3708;42.632;23.378;2023-06-22T03:05:59;10.57;;;7.57;;
7334;SDS011;3708;42.632;23.378;2023-06-22T03:08:27;9.13;;;7.97;;
7334;SDS011;3708;42.632;23.378;2023-06-22T03:10:55;10.23;;;9.13;;
7334;SDS011;3708;42.632;23.378;2023-06-22T03:13:22;10.90;;;8.53;;
7334;SDS011;3708;42.632;23.378;2023-06-22T03:15:50;10.70;;;8.97;;
7334;SDS011;3708;42.632;23.378;2023-06-22T03:18:17;9.10;;;7.77;;
7334;SDS011;3708;42.632;23.378;2023-06-22T03:20:44;10.30;;;7.83;;
7334;SDS011;3708;42.632;23.378;2023-06-22T03:23:11;12.80;;;9.30;;
7334;SDS011;3708;42.632;23.378;2023-06-22T03:25:38;11.67;;;8.40;;
7334;SDS011;3708;42.632;23.378;2023-06-22T03:28:06;11.67;;;8.53;;
7334;SDS011;3708;42.632;23.378;2023-06-22T03:30:33;9.43;;;7.83;;
7334;SDS011;3708;42.632;23.378;2023-06-22T03:32:59;14.00;;;8.03;;
7334;SDS011;3708;42.632;23.378;2023-06-22T03:35:26;10.03;;;8.30;;
7334;SDS011;3708;42.632;23.378;2023-06-22T03:37:53;9.43;;;7.83;;
7334;SDS011;3708;42.632;23.378;2023-06-22T03:40:20;10.10;;;7.93;;
7334;SDS011;3708;42.632;23.378;2023-06-22T03:42:48;9.27;;;7.70;;
7334;SDS011;3708;42.632;23.378;2023-06-22T03:45:16;10.10;;;8.47;;
7334;SDS011;3708;42.632;23.378;2023-06-22T03:47:43;9.73;;;7.83;;
7334;SDS011;3708;42.632;23.378;2023-06-22T03:50:10;9.60;;;8.07;;
7334;SDS011;3708;42.632;23.378;2023-06-22T03:52:36;9.50;;;8.40;;
7334;SDS011;3708;42.632;23.378;2023-06-22T03:55:04;10.47;;;8.87;;
7334;SDS011;3708;42.632;23.378;2023-06-22T03:57:31;11.05;;;8.40;;
7334;SDS011;3708;42.632;23.378;2023-06-22T03:59:58;11.27;;;8.37;;
7334;SDS011;3708;42.632;23.378;2023-06-22T04:02:26;13.33;;;8.77;;
7334;SDS011;3708;42.632;23.378;2023-06-22T04:04:53;11.23;;;8.73;;
7334;SDS011;3708;42.632;23.378;2023-06-22T04:07:20;11.40;;;9.47;;
7334;SDS011;3708;42.632;23.378;2023-06-22T04:09:47;10.17;;;8.50;;
7334;SDS011;3708;42.632;23.378;2023-06-22T04:12:14;16.97;;;8.50;;
7334;SDS011;3708;42.632;23.378;2023-06-22T04:14:40;10.90;;;9.63;;
7334;SDS011;3708;42.632;23.378;2023-06-22T04:17:07;10.60;;;9.57;;
7334;SDS011;3708;42.632;23.378;2023-06-22T04:19:35;10.60;;;8.93;;
7334;SDS011;3708;42.632;23.378;2023-06-22T04:22:02;10.63;;;9.27;;
7334;SDS011;3708;42.632;23.378;2023-06-22T04:24:32;11.47;;;9.43;;
7334;SDS011;3708;42.632;23.378;2023-06-22T04:26:59;10.98;;;9.35;;
7334;SDS011;3708;42.632;23.378;2023-06-22T04:29:27;11.65;;;10.05;;
7334;SDS011;3708;42.632;23.378;2023-06-22T04:31:55;10.18;;;9.10;;
7334;SDS011;3708;42.632;23.378;2023-06-22T04:34:23;15.02;;;9.95;;
7334;SDS011;3708;42.632;23.378;2023-06-22T04:36:53;10.15;;;8.98;;
7334;SDS011;3708;42.632;23.378;2023-06-22T04:39:20;12.25;;;9.55;;
7334;SDS011;3708;42.632;23.378;2023-06-22T04:41:48;14.43;;;10.05;;
7334;SDS011;3708;42.632;23.378;2023-06-22T04:44:16;12.13;;;9.65;;
7334;SDS011;3708;42.632;23.378;2023-06-22T04:46:49;12.93;;;8.38;;
7334;SDS011;3708;42.632;23.378;2023-06-22T04:49:19;9.82;;;8.52;;
7334;SDS011;3708;42.632;23.378;2023-06-22T04:51:47;16.30;;;9.63;;
7334;SDS011;3708;42.632;23.378;2023-06-22T04:54:15;10.90;;;9.57;;
7334;SDS011;3708;42.632;23.378;2023-06-22T04:56:42;14.15;;;9.18;;
7334;SDS011;3708;42.632;23.378;2023-06-22T04:59:11;13.57;;;9.02;;
7334;SDS011;3708;42.632;23.378;2023-06-22T05:01:39;17.75;;;10.00;;
7334;SDS011;3708;42.632;23.378;2023-06-22T05:04:06;14.50;;;9.93;;
7334;SDS011;3708;42.632;23.378;2023-06-22T05:06:34;11.65;;;8.80;;
7334;SDS011;3708;42.632;23.378;2023-06-22T05:09:00;10.93;;;9.60;;
7334;SDS011;3708;42.632;23.378;2023-06-22T05:11:30;15.20;;;9.82;;
7334;SDS011;3708;42.632;23.378;2023-06-22T05:13:56;12.30;;;9.98;;
7334;SDS011;3708;42.632;23.378;2023-06-22T05:16:23;15.77;;;9.95;;
7334;SDS011;3708;42.632;23.378;2023-06-22T05:18:51;16.80;;;10.40;;
7334;SDS011;3708;42.632;23.378;2023-06-22T05:21:21;16.85;;;10.88;;
7334;SDS011;3708;42.632;23.378;2023-06-22T05:23:49;19.02;;;11.55;;
7334;SDS011;3708;42.632;23.378;2023-06-22T05:26:16;11.27;;;8.50;;
7334;SDS011;3708;42.632;23.378;2023-06-22T05:28:44;10.35;;;9.07;;
7334;SDS011;3708;42.632;23.378;2023-06-22T05:31:12;12.57;;;9.05;;
7334;SDS011;3708;42.632;23.378;2023-06-22T05:33:39;13.60;;;10.25;;
7334;SDS011;3708;42.632;23.378;2023-06-22T05:36:06;14.18;;;10.85;;
7334;SDS011;3708;42.632;23.378;2023-06-22T05:38:33;12.10;;;9.73;;
7334;SDS011;3708;42.632;23.378;2023-06-22T05:41:00;12.60;;;10.23;;
7334;SDS011;3708;42.632;23.378;2023-06-22T05:43:27;12.75;;;9.93;;
7334;SDS011;3708;42.632;23.378;2023-06-22T05:45:55;10.77;;;9.05;;
7334;SDS011;3708;42.632;23.378;2023-06-22T05:48:22;21.20;;;10.27;;
7334;SDS011;3708;42.632;23.378;2023-06-22T05:50:49;14.43;;;9.00;;
7334;SDS011;3708;42.632;23.378;2023-06-22T05:53:16;17.80;;;8.85;;
7334;SDS011;3708;42.632;23.378;2023-06-22T05:55:42;10.57;;;9.35;;
7334;SDS011;3708;42.632;23.378;2023-06-22T05:58:09;11.60;;;9.45;;
7334;SDS011;3708;42.632;23.378;2023-06-22T06:00:36;13.45;;;9.70;;
7334;SDS011;3708;42.632;23.378;2023-06-22T06:03:05;14.02;;;9.43;;
7334;SDS011;3708;42.632;23.378;2023-06-22T06:05:33;11.80;;;9.82;;
7334;SDS011;3708;42.632;23.378;2023-06-22T06:08:00;17.50;;;10.68;;
7334;SDS011;3708;42.632;23.378;2023-06-22T06:10:28;20.95;;;10.35;;
7334;SDS011;3708;42.632;23.378;2023-06-22T06:12:55;13.38;;;10.05;;
7334;SDS011;3708;42.632;23.378;2023-06-22T06:15:22;12.25;;;9.70;;
7334;SDS011;3708;42.632;23.378;2023-06-22T06:17:49;10.65;;;9.65;;
7334;SDS011;3708;42.632;23.378;2023-06-22T06:20:19;9.90;;;9.00;;
7334;SDS011;3708;42.632;23.378;2023-06-22T06:22:47;14.93;;;9.95;;
7334;SDS011;3708;42.632;23.378;2023-06-22T06:25:14;14.45;;;9.90;;
7334;SDS011;3708;42.632;23.378;2023-06-22T06:27:42;16.90;;;10.40;;
7334;SDS011;3708;42.632;23.378;2023-06-22T06:30:09;13.27;;;9.77;;
7334;SDS011;3708;42.632;23.378;2023-06-22T06:32:37;12.85;;;9.90;;
7334;SDS011;3708;42.632;23.378;2023-06-22T06:35:05;10.95;;;9.57;;
7334;SDS011;3708;42.632;23.378;2023-06-22T06:37:35;14.15;;;9.90;;
7334;SDS011;3708;42.632;23.378;2023-06-22T06:40:03;10.52;;;8.70;;
7334;SDS011;3708;42.632;23.378;2023-06-22T06:42:33;17.42;;;11.18;;
7334;SDS011;3708;42.632;23.378;2023-06-22T06:45:00;12.02;;;9.43;;
7334;SDS011;3708;42.632;23.378;2023-06-22T06:47:27;10.85;;;8.63;;
7334;SDS011;3708;42.632;23.378;2023-06-22T06:49:53;14.98;;;7.90;;
7334;SDS011;3708;42.632;23.378;2023-06-22T06:52:20;11.45;;;8.38;;
7334;SDS011;3708;42.632;23.378;2023-06-22T06:54:48;10.75;;;9.13;;
7334;SDS011;3708;42.632;23.378;2023-06-22T06:57:16;12.48;;;8.05;;
7334;SDS011;3708;42.632;23.378;2023-06-22T06:59:43;12.38;;;8.60;;
7334;SDS011;3708;42.632;23.378;2023-06-22T07:02:10;13.77;;;9.18;;
7334;SDS011;3708;42.632;23.378;2023-06-22T07:04:37;10.15;;;8.88;;
7334;SDS011;3708;42.632;23.378;2023-06-22T07:07:04;9.70;;;8.70;;
7334;SDS011;3708;42.632;23.378;2023-06-22T07:09:31;11.95;;;8.60;;
7334;SDS011;3708;42.632;23.378;2023-06-22T07:11:59;13.68;;;8.50;;
7334;SDS011;3708;42.632;23.378;2023-06-22T07:14:26;11.40;;;9.35;;
7334;SDS011;3708;42.632;23.378;2023-06-22T07:16:53;14.23;;;9.18;;
7334;SDS011;3708;42.632;23.378;2023-06-22T07:19:24;12.63;;;9.38;;
7334;SDS011;3708;42.632;23.378;2023-06-22T07:21:52;15.68;;;9.15;;
7334;SDS011;3708;42.632;23.378;2023-06-22T07:24:19;11.65;;;9.27;;
7334;SDS011;3708;42.632;23.378;2023-06-22T07:26:46;13.15;;;9.75;;
7334;SDS011;3708;42.632;23.378;2023-06-22T07:29:16;12.43;;;10.13;;
7334;SDS011;3708;42.632;23.378;2023-06-22T07:31:43;11.85;;;9.88;;
7334;SDS011;3708;42.632;23.378;2023-06-22T07:34:11;14.18;;;10.85;;
7334;SDS011;3708;42.632;23.378;2023-06-22T07:36:38;18.60;;;10.13;;
7334;SDS011;3708;42.632;23.378;2023-06-22T07:39:05;11.35;;;8.70;;
7334;SDS011;3708;42.632;23.378;2023-06-22T07:41:31;10.65;;;8.90;;
7334;SDS011;3708;42.632;23.378;2023-06-22T07:43:58;15.80;;;9.35;;
7334;SDS011;3708;42.632;23.378;2023-06-22T07:46:27;13.65;;;8.75;;
7334;SDS011;3708;42.632;23.378;2023-06-22T07:48:55;12.38;;;8.98;;
7334;SDS011;3708;42.632;23.378;2023-06-22T07:51:22;14.45;;;9.18;;
7334;SDS011;3708;42.632;23.378;2023-06-22T07:53:49;13.77;;;8.73;;
7334;SDS011;3708;42.632;23.378;2023-06-22T07:56:15;13.30;;;9.00;;
7334;SDS011;3708;42.632;23.378;2023-06-22T07:58:44;15.45;;;9.57;;
7334;SDS011;3708;42.632;23.378;2023-06-22T08:01:11;11.00;;;9.00;;
7334;SDS011;3708;42.632;23.378;2023-06-22T08:03:39;9.70;;;8.27;;
7334;SDS011;3708;42.632;23.378;2023-06-22T08:06:06;10.07;;;8.63;;
7334;SDS011;3708;42.632;23.378;2023-06-22T08:08:35;9.60;;;7.82;;
7334;SDS011;3708;42.632;23.378;2023-06-22T08:11:01;14.02;;;8.40;;
7334;SDS011;3708;42.632;23.378;2023-06-22T08:13:29;14.32;;;9.43;;
7334;SDS011;3708;42.632;23.378;2023-06-22T08:15:58;11.13;;;8.70;;
7334;SDS011;3708;42.632;23.378;2023-06-22T08:18:24;11.38;;;8.65;;
7334;SDS011;3708;42.632;23.378;2023-06-22T08:20:53;8.80;;;7.90;;
7334;SDS011;3708;42.632;23.378;2023-06-22T08:23:20;15.43;;;8.90;;
7334;SDS011;3708;42.632;23.378;2023-06-22T08:25:46;11.90;;;8.35;;
7334;SDS011;3708;42.632;23.378;2023-06-22T08:28:15;15.23;;;9.20;;
7334;SDS011;3708;42.632;23.378;2023-06-22T08:30:42;10.63;;;8.93;;
7334;SDS011;3708;42.632;23.378;2023-06-22T08:33:09;13.85;;;8.60;;
7334;SDS011;3708;42.632;23.378;2023-06-22T08:35:35;9.93;;;8.35;;
7334;SDS011;3708;42.632;23.378;2023-06-22T08:38:04;9.80;;;8.32;;
7334;SDS011;3708;42.632;23.378;2023-06-22T08:40:31;9.27;;;8.07;;
7334;SDS011;3708;42.632;23.378;2023-06-22T08:42:57;11.80;;;7.82;;
7334;SDS011;3708;42.632;23.378;2023-06-22T08:45:24;14.13;;;8.80;;
7334;SDS011;3708;42.632;23.378;2023-06-22T08:47:51;11.50;;;8.02;;
7334;SDS011;3708;42.632;23.378;2023-06-22T08:50:18;11.10;;;8.40;;
7334;SDS011;3708;42.632;23.378;2023-06-22T08:52:45;13.50;;;9.07;;
7334;SDS011;3708;42.632;23.378;2023-06-22T08:55:13;13.95;;;8.55;;
7334;SDS011;3708;42.632;23.378;2023-06-22T08:57:39;11.60;;;8.82;;
7334;SDS011;3708;42.632;23.378;2023-06-22T09:00:08;12.40;;;9.07;;
7334;SDS011;3708;42.632;23.378;2023-06-22T09:02:41;13.18;;;9.07;;
7334;SDS011;3708;42.632;23.378;2023-06-22T09:05:08;9.98;;;8.07;;
7334;SDS011;3708;42.632;23.378;2023-06-22T09:07:35;9.88;;;8.55;;
7334;SDS011;3708;42.632;23.378;2023-06-22T09:10:02;15.35;;;9.77;;
7334;SDS011;3708;42.632;23.378;2023-06-22T09:12:32;10.60;;;8.70;;
7334;SDS011;3708;42.632;23.378;2023-06-22T09:14:59;12.57;;;9.25;;
7334;SDS011;3708;42.632;23.378;2023-06-22T09:17:27;11.63;;;9.13;;
7334;SDS011;3708;42.632;23.378;2023-06-22T09:19:54;10.50;;;9.38;;
7334;SDS011;3708;42.632;23.378;2023-06-22T09:22:21;12.60;;;8.75;;
7334;SDS011;3708;42.632;23.378;2023-06-22T09:24:48;9.85;;;7.68;;
7334;SDS011;3708;42.632;23.378;2023-06-22T09:27:15;11.63;;;9.13;;
7334;SDS011;3708;42.632;23.378;2023-06-22T09:29:43;12.50;;;9.15;;
7334;SDS011;3708;42.632;23.378;2023-06-22T09:32:10;12.50;;;9.10;;
7334;SDS011;3708;42.632;23.378;2023-06-22T09:34:37;11.85;;;8.95;;
7334;SDS011;3708;42.632;23.378;2023-06-22T09:37:04;7.80;;;6.95;;
7334;SDS011;3708;42.632;23.378;2023-06-22T09:39:31;10.07;;;7.57;;
7334;SDS011;3708;42.632;23.378;2023-06-22T09:41:59;8.65;;;7.25;;
7334;SDS011;3708;42.632;23.378;2023-06-22T09:44:26;9.77;;;7.25;;
7334;SDS011;3708;42.632;23.378;2023-06-22T09:46:54;11.43;;;7.50;;
7334;SDS011;3708;42.632;23.378;2023-06-22T09:49:21;8.68;;;7.65;;
7334;SDS011;3708;42.632;23.378;2023-06-22T09:51:48;8.23;;;7.00;;
7334;SDS011;3708;42.632;23.378;2023-06-22T09:54:16;7.75;;;6.95;;
7334;SDS011;3708;42.632;23.378;2023-06-22T09:56:42;9.38;;;6.72;;
7334;SDS011;3708;42.632;23.378;2023-06-22T09:59:09;9.50;;;6.93;;
7334;SDS011;3708;42.632;23.378;2023-06-22T10:01:36;8.00;;;6.63;;
7334;SDS011;3708;42.632;23.378;2023-06-22T10:04:04;10.40;;;7.45;;
7334;SDS011;3708;42.632;23.378;2023-06-22T10:06:31;8.43;;;7.63;;
7334;SDS011;3708;42.632;23.378;2023-06-22T10:08:58;8.10;;;7.38;;
7334;SDS011;3708;42.632;23.378;2023-06-22T10:11:25;8.98;;;6.55;;
7334;SDS011;3708;42.632;23.378;2023-06-22T10:13:55;9.27;;;6.68;;
7334;SDS011;3708;42.632;23.378;2023-06-22T10:16:23;7.60;;;6.72;;
7334;SDS011;3708;42.632;23.378;2023-06-22T10:18:51;10.30;;;7.90;;
7334;SDS011;3708;42.632;23.378;2023-06-22T10:21:20;12.60;;;7.80;;
7334;SDS011;3708;42.632;23.378;2023-06-22T10:23:46;7.63;;;6.93;;
7334;SDS011;3708;42.632;23.378;2023-06-22T10:26:13;11.43;;;6.95;;
7334;SDS011;3708;42.632;23.378;2023-06-22T10:28:40;9.88;;;7.38;;
7334;SDS011;3708;42.632;23.378;2023-06-22T10:31:07;8.65;;;7.40;;
7334;SDS011;3708;42.632;23.378;2023-06-22T10:33:34;9.05;;;7.00;;
7334;SDS011;3708;42.632;23.378;2023-06-22T10:36:00;9.65;;;7.10;;
7334;SDS011;3708;42.632;23.378;2023-06-22T10:38:28;8.55;;;7.43;;
7334;SDS011;3708;42.632;23.378;2023-06-22T10:40:55;7.53;;;6.80;;
7334;SDS011;3708;42.632;23.378;2023-06-22T10:43:22;10.80;;;6.72;;
7334;SDS011;3708;42.632;23.378;2023-06-22T10:45:49;7.63;;;6.90;;
7334;SDS011;3708;42.632;23.378;2023-06-22T10:48:16;8.40;;;7.40;;
7334;SDS011;3708;42.632;23.378;2023-06-22T10:50:42;8.55;;;7.70;;
7334;SDS011;3708;42.632;23.378;2023-06-22T10:53:09;8.10;;;7.30;;
7334;SDS011;3708;42.632;23.378;2023-06-22T10:55:37;9.65;;;7.40;;
7334;SDS011;3708;42.632;23.378;2023-06-22T10:58:04;8.25;;;7.20;;
7334;SDS011;3708;42.632;23.378;2023-06-22T11:00:31;8.20;;;7.43;;
7334;SDS011;3708;42.632;23.378;2023-06-22T11:03:01;10.80;;;7.40;;
7334;SDS011;3708;42.632;23.378;2023-06-22T11:05:28;8.40;;;7.60;;
7334;SDS011;3708;42.632;23.378;2023-06-22T11:07:54;10.55;;;8.32;;
7334;SDS011;3708;42.632;23.378;2023-06-22T11:10:21;9.35;;;7.90;;
7334;SDS011;3708;42.632;23.378;2023-06-22T11:12:49;8.48;;;7.40;;
7334;SDS011;3708;42.632;23.378;2023-06-22T11:15:16;8.70;;;7.88;;
7334;SDS011;3708;42.632;23.378;2023-06-22T11:17:43;8.38;;;7.57;;
7334;SDS011;3708;42.632;23.378;2023-06-22T11:20:11;8.40;;;7.32;;
7334;SDS011;3708;42.632;23.378;2023-06-22T11:22:38;8.10;;;7.30;;
7334;SDS011;3708;42.632;23.378;2023-06-22T11:25:05;8.23;;;7.47;;
7334;SDS011;3708;42.632;23.378;2023-06-22T11:27:33;8.27;;;7.32;;
7334;SDS011;3708;42.632;23.378;2023-06-22T11:30:01;7.85;;;7.00;;
7334;SDS011;3708;42.632;23.378;2023-06-22T11:32:28;9.10;;;7.45;;
7334;SDS011;3708;42.632;23.378;2023-06-22T11:34:55;9.57;;;7.25;;
7334;SDS011;3708;42.632;23.378;2023-06-22T11:37:21;7.05;;;6.35;;
7334;SDS011;3708;42.632;23.378;2023-06-22T11:39:48;7.93;;;6.90;;
7334;SDS011;3708;42.632;23.378;2023-06-22T11:42:15;9.15;;;6.43;;
7334;SDS011;3708;42.632;23.378;2023-06-22T11:44:42;9.50;;;6.05;;
7334;SDS011;3708;42.632;23.378;2023-06-22T11:47:11;7.82;;;6.93;;
7334;SDS011;3708;42.632;23.378;2023-06-22T11:49:37;6.65;;;5.95;;
7334;SDS011;3708;42.632;23.378;2023-06-22T11:52:05;6.32;;;5.75;;
7334;SDS011;3708;42.632;23.378;2023-06-22T11:54:32;5.85;;;5.35;;
7334;SDS011;3708;42.632;23.378;2023-06-22T11:56:59;6.22;;;5.70;;
7334;SDS011;3708;42.632;23.378;2023-06-22T11:59:26;6.60;;;5.95;;
7334;SDS011;3708;42.632;23.378;2023-06-22T12:01:53;6.00;;;5.50;;
7334;SDS011;3708;42.632;23.378;2023-06-22T12:04:21;6.38;;;5.68;;
7334;SDS011;3708;42.632;23.378;2023-06-22T12:06:48;6.60;;;6.00;;
7334;SDS011;3708;42.632;23.378;2023-06-22T12:09:14;6.25;;;5.63;;
7334;SDS011;3708;42.632;23.378;2023-06-22T12:11:41;6.82;;;6.13;;
7334;SDS011;3708;42.632;23.378;2023-06-22T12:14:08;5.43;;;5.03;;
7334;SDS011;3708;42.632;23.378;2023-06-22T12:16:37;6.60;;;6.00;;
7334;SDS011;3708;42.632;23.378;2023-06-22T12:19:04;6.28;;;5.68;;
7334;SDS011;3708;42.632;23.378;2023-06-22T12:21:32;6.90;;;6.15;;
7334;SDS011;3708;42.632;23.378;2023-06-22T12:23:59;9.07;;;6.57;;
7334;SDS011;3708;42.632;23.378;2023-06-22T12:26:25;8.73;;;7.28;;
7334;SDS011;3708;42.632;23.378;2023-06-22T12:28:52;8.40;;;7.18;;
7334;SDS011;3708;42.632;23.378;2023-06-22T12:31:19;8.80;;;7.28;;
7334;SDS011;3708;42.632;23.378;2023-06-22T12:33:46;9.30;;;7.57;;
7334;SDS011;3708;42.632;23.378;2023-06-22T12:36:12;9.07;;;7.20;;
7334;SDS011;3708;42.632;23.378;2023-06-22T12:38:41;12.18;;;7.75;;
7334;SDS011;3708;42.632;23.378;2023-06-22T12:41:08;12.15;;;7.68;;
7334;SDS011;3708;42.632;23.378;2023-06-22T12:43:35;12.73;;;6.65;;
7334;SDS011;3708;42.632;23.378;2023-06-22T12:46:01;14.32;;;7.63;;
7334;SDS011;3708;42.632;23.378;2023-06-22T12:48:28;14.50;;;8.52;;
7334;SDS011;3708;42.632;23.378;2023-06-22T12:50:55;11.57;;;8.15;;
7334;SDS011;3708;42.632;23.378;2023-06-22T12:53:22;15.82;;;8.10;;
7334;SDS011;3708;42.632;23.378;2023-06-22T12:55:50;13.30;;;8.07;;
7334;SDS011;3708;42.632;23.378;2023-06-22T12:58:17;11.98;;;9.13;;
7334;SDS011;3708;42.632;23.378;2023-06-22T13:00:44;11.30;;;8.73;;
7334;SDS011;3708;42.632;23.378;2023-06-22T13:03:11;13.13;;;8.45;;
7334;SDS011;3708;42.632;23.378;2023-06-22T13:05:38;13.70;;;9.27;;
7334;SDS011;3708;42.632;23.378;2023-06-22T13:08:05;12.05;;;9.73;;
7334;SDS011;3708;42.632;23.378;2023-06-22T13:10:33;9.45;;;8.48;;
7334;SDS011;3708;42.632;23.378;2023-06-22T13:13:01;11.10;;;9.52;;
7334;SDS011;3708;42.632;23.378;2023-06-22T13:15:28;12.70;;;10.45;;
7334;SDS011;3708;42.632;23.378;2023-06-22T13:17:55;13.85;;;9.25;;
7334;SDS011;3708;42.632;23.378;2023-06-22T13:20:22;11.77;;;9.80;;
7334;SDS011;3708;42.632;23.378;2023-06-22T13:22:49;10.23;;;8.63;;
7334;SDS011;3708;42.632;23.378;2023-06-22T13:25:16;10.35;;;8.63;;
7334;SDS011;3708;42.632;23.378;2023-06-22T13:30:31;10.27;;;8.63;;
7334;SDS011;3708;42.632;23.378;2023-06-22T13:32:58;11.15;;;9.07;;
7334;SDS011;3708;42.632;23.378;2023-06-22T13:35:25;10.45;;;8.32;;
7334;SDS011;3708;42.632;23.378;2023-06-22T13:37:52;9.65;;;8.18;;
7334;SDS011;3708;42.632;23.378;2023-06-22T13:40:19;10.57;;;8.15;;
7334;SDS011;3708;42.632;23.378;2023-06-22T13:42:45;12.70;;;8.13;;
7334;SDS011;3708;42.632;23.378;2023-06-22T13:45:14;9.95;;;8.65;;
7334;SDS011;3708;42.632;23.378;2023-06-22T13:47:42;9.50;;;8.00;;
7334;SDS011;3708;42.632;23.378;2023-06-22T13:50:09;9.55;;;8.55;;
7334;SDS011;3708;42.632;23.378;2023-06-22T13:52:37;9.88;;;8.77;;
7334;SDS011;3708;42.632;23.378;2023-06-22T13:55:05;10.82;;;9.77;;
7334;SDS011;3708;42.632;23.378;2023-06-22T13:57:33;12.55;;;8.93;;
7334;SDS011;3708;42.632;23.378;2023-06-22T14:00:00;10.93;;;9.15;;
7334;SDS011;3708;42.632;23.378;2023-06-22T14:02:28;12.10;;;9.43;;
7334;SDS011;3708;42.632;23.378;2023-06-22T14:04:55;16.30;;;9.43;;
7334;SDS011;3708;42.632;23.378;2023-06-22T14:07:21;13.73;;;9.27;;
7334;SDS011;3708;42.632;23.378;2023-06-22T14:09:49;13.23;;;8.75;;
7334;SDS011;3708;42.632;23.378;2023-06-22T14:12:16;11.65;;;8.80;;
7334;SDS011;3708;42.632;23.378;2023-06-22T14:14:44;12.90;;;9.07;;
7334;SDS011;3708;42.632;23.378;2023-06-22T14:17:11;12.27;;;9.00;;
7334;SDS011;3708;42.632;23.378;2023-06-22T14:19:39;11.93;;;9.18;;
7334;SDS011;3708;42.632;23.378;2023-06-22T14:22:06;13.38;;;8.43;;
7334;SDS011;3708;42.632;23.378;2023-06-22T14:24:32;11.63;;;8.70;;
7334;SDS011;3708;42.632;23.378;2023-06-22T14:26:59;12.63;;;8.68;;
7334;SDS011;3708;42.632;23.378;2023-06-22T14:29:28;11.48;;;8.88;;
7334;SDS011;3708;42.632;23.378;2023-06-22T14:31:55;16.45;;;8.95;;
7334;SDS011;3708;42.632;23.378;2023-06-22T14:34:22;9.35;;;8.35;;
7334;SDS011;3708;42.632;23.378;2023-06-22T14:36:50;10.38;;;9.07;;
7334;SDS011;3708;42.632;23.378;2023-06-22T14:39:17;9.85;;;8.40;;
7334;SDS011;3708;42.632;23.378;2023-06-22T14:41:43;11.70;;;9.00;;
7334;SDS011;3708;42.632;23.378;2023-06-22T14:44:10;12.48;;;9.82;;
7334;SDS011;3708;42.632;23.378;2023-06-22T14:46:37;12.05;;;9.70;;
7334;SDS011;3708;42.632;23.378;2023-06-22T14:49:04;10.77;;;9.70;;
7334;SDS011;3708;42.632;23.378;2023-06-22T14:51:31;10.93;;;9.50;;
7334;SDS011;3708;42.632;23.378;2023-06-22T14:53:59;10.55;;;9.40;;
7334;SDS011;3708;42.632;23.378;2023-06-22T14:56:26;12.75;;;10.70;;
7334;SDS011;3708;42.632;23.378;2023-06-22T14:58:52;12.63;;;9.30;;